createdAt,value
2023-05-19T00:00:58.529Z,25.00
2023-05-19T00:01:58.600Z,0.00
2023-05-19T00:02:58.645Z,0.00
2023-05-19T00:03:58.601Z,0.00
2023-05-19T00:04:58.621Z,0.00
2023-05-19T00:05:58.708Z,0.00
2023-05-19T00:06:58.674Z,0.00
2023-05-19T00:07:58.699Z,0.00
2023-05-19T00:08:58.743Z,0.00
2023-05-19T00:09:58.742Z,0.00
2023-05-19T00:10:58.759Z,0.00
2023-05-19T00:11:58.807Z,20.03
2023-05-19T00:12:58.805Z,26.55
2023-05-19T00:13:58.836Z,25.17
2023-05-19T00:14:58.863Z,25.00
2023-05-19T00:15:58.966Z,27.18
2023-05-19T00:16:58.928Z,25.79
2023-05-19T00:17:59.041Z,25.00
2023-05-19T00:18:59.035Z,26.22
2023-05-19T00:19:59.029Z,25.81
2023-05-19T00:20:59.061Z,26.77
2023-05-19T00:21:59.086Z,25.00
2023-05-19T00:22:59.147Z,25.00
2023-05-19T00:23:59.176Z,25.69
2023-05-19T00:24:59.211Z,26.40
2023-05-19T00:25:59.312Z,26.15
2023-05-19T00:26:59.286Z,25.42
2023-05-19T00:27:59.370Z,25.46
2023-05-19T00:28:59.357Z,27.32
2023-05-19T00:29:59.398Z,26.62
2023-05-19T00:30:59.453Z,26.49
2023-05-19T00:31:59.516Z,26.47
2023-05-19T00:32:59.547Z,27.33
2023-05-19T00:33:59.563Z,26.90
2023-05-19T00:34:59.606Z,25.00
2023-05-19T00:35:59.646Z,26.15
2023-05-19T00:36:59.690Z,30.27
2023-05-19T00:37:59.731Z,26.68
2023-05-19T00:38:59.778Z,28.28
2023-05-19T00:39:59.813Z,25.00
2023-05-19T00:40:59.869Z,27.07
2023-05-19T00:41:59.892Z,27.11
2023-05-19T00:42:59.943Z,28.27
2023-05-19T00:44:00.016Z,25.35
2023-05-19T00:45:00.022Z,27.59
2023-05-19T00:46:00.110Z,25.24
2023-05-19T00:47:00.221Z,25.59
2023-05-19T00:48:00.207Z,27.49
2023-05-19T00:49:00.193Z,30.32
2023-05-19T00:50:00.238Z,29.97
2023-05-19T00:51:00.292Z,29.83
2023-05-19T00:52:00.342Z,28.35
2023-05-19T00:53:00.387Z,25.00
2023-05-19T00:54:00.426Z,25.66
2023-05-19T00:55:00.474Z,28.58
2023-05-19T00:56:00.524Z,26.02
2023-05-19T00:57:00.563Z,27.63
2023-05-19T00:58:00.620Z,28.18
2023-05-19T00:59:00.657Z,29.38
2023-05-19T01:00:00.728Z,32.46
2023-05-19T01:01:00.852Z,29.16
2023-05-19T01:02:00.813Z,30.13
2023-05-19T01:03:01.000Z,27.93
2023-05-19T01:04:01.008Z,27.56
2023-05-19T01:05:00.943Z,28.61
2023-05-19T01:06:00.992Z,29.44
2023-05-19T01:07:01.026Z,27.25
2023-05-19T01:08:01.070Z,28.21
2023-05-19T01:09:01.110Z,28.58
2023-05-19T01:10:01.172Z,26.86
2023-05-19T01:11:01.210Z,29.02
2023-05-19T01:12:01.226Z,30.34
2023-05-19T01:13:01.241Z,26.59
2023-05-19T01:14:01.259Z,29.72
2023-05-19T01:15:01.285Z,29.07
2023-05-19T01:16:01.381Z,27.18
2023-05-19T01:17:01.311Z,26.69
2023-05-19T01:18:01.398Z,27.19
2023-05-19T01:19:01.433Z,28.58
2023-05-19T01:20:01.405Z,25.26
2023-05-19T01:21:01.400Z,28.06
2023-05-19T01:22:01.409Z,29.40
2023-05-19T01:23:01.415Z,28.14
2023-05-19T01:24:01.441Z,29.19
2023-05-19T01:25:01.446Z,27.36
2023-05-19T01:26:01.461Z,28.12
2023-05-19T01:27:01.498Z,27.93
2023-05-19T01:28:01.500Z,27.89
2023-05-19T01:29:01.528Z,30.94
2023-05-19T01:30:01.562Z,28.74
2023-05-19T01:31:01.568Z,28.87
2023-05-19T01:32:01.684Z,29.28
2023-05-19T01:33:01.650Z,31.35
2023-05-19T01:34:01.645Z,29.73
2023-05-19T01:35:01.674Z,27.55
2023-05-19T01:36:01.722Z,27.32
2023-05-19T01:37:01.680Z,25.00
2023-05-19T01:38:01.722Z,30.21
2023-05-19T01:39:01.722Z,29.63
2023-05-19T01:40:01.765Z,29.68
2023-05-19T01:41:01.771Z,28.59
2023-05-19T01:42:01.778Z,30.37
2023-05-19T01:43:01.800Z,27.19
2023-05-19T01:44:01.817Z,31.18
2023-05-19T01:45:01.848Z,30.09
2023-05-19T01:46:01.927Z,28.70
2023-05-19T01:47:01.875Z,29.89
2023-05-19T01:48:01.941Z,28.86
2023-05-19T01:49:01.906Z,27.08
2023-05-19T01:50:01.927Z,30.83
2023-05-19T01:51:01.950Z,30.21
2023-05-19T01:52:01.966Z,29.79
2023-05-19T01:53:01.986Z,30.36
2023-05-19T01:54:02.001Z,28.15
2023-05-19T01:55:02.016Z,26.52
2023-05-19T01:56:02.046Z,29.63
2023-05-19T01:57:02.066Z,26.32
2023-05-19T01:58:02.079Z,24.47
2023-05-19T01:59:02.095Z,25.00
2023-05-19T02:00:02.129Z,29.15
2023-05-19T02:01:02.164Z,28.94
2023-05-19T02:02:02.153Z,31.16
2023-05-19T02:03:02.217Z,26.16
2023-05-19T02:04:02.294Z,30.10
2023-05-19T02:05:02.211Z,31.02
2023-05-19T02:06:02.240Z,29.60
2023-05-19T02:07:02.259Z,30.75
2023-05-19T02:08:02.278Z,28.99
2023-05-19T02:09:02.302Z,29.52
2023-05-19T02:10:02.336Z,30.62
2023-05-19T02:11:02.348Z,28.86
2023-05-19T02:12:02.370Z,28.33
2023-05-19T02:13:02.390Z,27.83
2023-05-19T02:14:02.402Z,29.05
2023-05-19T02:15:02.442Z,30.35
2023-05-19T02:16:02.450Z,25.00
2023-05-19T02:17:02.463Z,29.21
2023-05-19T02:18:02.526Z,30.05
2023-05-19T02:19:02.570Z,26.84
2023-05-19T02:20:02.556Z,28.72
2023-05-19T02:21:02.548Z,30.02
2023-05-19T02:22:02.587Z,28.83
2023-05-19T02:23:02.578Z,28.62
2023-05-19T02:24:02.605Z,27.79
2023-05-19T02:25:02.603Z,30.34
2023-05-19T02:26:02.635Z,29.94
2023-05-19T02:27:02.648Z,31.71
2023-05-19T02:28:02.652Z,30.12
2023-05-19T02:29:02.671Z,27.35
2023-05-19T02:30:02.691Z,29.64
2023-05-19T02:31:02.720Z,30.33
2023-05-19T02:32:02.780Z,27.68
2023-05-19T02:33:02.793Z,30.98
2023-05-19T02:34:02.788Z,26.40
2023-05-19T02:35:02.802Z,30.13
2023-05-19T02:36:02.858Z,28.75
2023-05-19T02:37:02.872Z,26.97
2023-05-19T02:38:02.926Z,27.97
2023-05-19T02:39:02.981Z,28.05
2023-05-19T02:40:03.025Z,27.98
2023-05-19T02:41:03.083Z,29.26
2023-05-19T02:42:03.135Z,28.10
2023-05-19T02:43:03.190Z,27.44
2023-05-19T02:44:03.236Z,27.13
2023-05-19T02:45:03.281Z,29.12
2023-05-19T02:46:03.375Z,27.28
2023-05-19T02:47:03.484Z,29.79
2023-05-19T02:48:03.534Z,28.45
2023-05-19T02:49:03.546Z,29.86
2023-05-19T02:50:03.548Z,29.29
2023-05-19T02:51:03.604Z,28.46
2023-05-19T02:52:03.675Z,28.52
2023-05-19T02:53:03.702Z,25.56
2023-05-19T02:54:03.750Z,29.28
2023-05-19T02:55:03.793Z,26.31
2023-05-19T02:56:03.846Z,30.80
2023-05-19T02:57:03.900Z,30.67
2023-05-19T02:58:03.953Z,29.09
2023-05-19T02:59:04.009Z,29.73
2023-05-19T03:00:04.051Z,28.81
2023-05-19T03:01:04.104Z,29.57
2023-05-19T03:02:04.198Z,30.18
2023-05-19T03:03:04.278Z,32.04
2023-05-19T03:04:04.283Z,28.90
2023-05-19T03:05:04.289Z,27.52
2023-05-19T03:06:04.343Z,28.63
2023-05-19T03:07:04.414Z,29.26
2023-05-19T03:08:04.469Z,31.14
2023-05-19T03:09:04.487Z,27.17
2023-05-19T03:10:04.536Z,32.50
2023-05-19T03:11:04.598Z,27.95
2023-05-19T03:12:04.650Z,27.85
2023-05-19T03:13:04.679Z,30.29
2023-05-19T03:14:04.691Z,27.52
2023-05-19T03:15:04.698Z,27.21
2023-05-19T03:16:04.763Z,27.60
2023-05-19T03:17:04.755Z,30.67
2023-05-19T03:18:04.819Z,27.78
2023-05-19T03:19:04.831Z,27.59
2023-05-19T03:20:04.812Z,30.34
2023-05-19T03:21:04.825Z,29.44
2023-05-19T03:22:04.855Z,27.88
2023-05-19T03:23:04.865Z,28.89
2023-05-19T03:24:04.897Z,27.78
2023-05-19T03:25:04.896Z,29.69
2023-05-19T03:26:04.904Z,25.00
2023-05-19T03:27:04.916Z,28.68
2023-05-19T03:28:04.936Z,29.46
2023-05-19T03:29:04.942Z,28.46
2023-05-19T03:30:06.612Z,29.73
2023-05-19T03:31:04.940Z,31.14
2023-05-19T03:32:04.936Z,30.04
2023-05-19T03:33:04.972Z,29.23
2023-05-19T03:34:04.897Z,27.91
2023-05-19T03:35:04.875Z,27.61
2023-05-19T03:36:04.869Z,28.23
2023-05-19T03:37:04.858Z,26.85
2023-05-19T03:38:04.827Z,27.69
2023-05-19T03:39:04.809Z,27.96
2023-05-19T03:40:04.829Z,28.54
2023-05-19T03:41:04.783Z,26.85
2023-05-19T03:42:04.770Z,25.28
2023-05-19T03:43:04.758Z,29.67
2023-05-19T03:44:04.783Z,29.03
2023-05-19T03:45:04.729Z,26.14
2023-05-19T03:46:04.772Z,26.22
2023-05-19T03:47:04.693Z,25.91
2023-05-19T03:48:04.749Z,27.26
2023-05-19T03:49:04.663Z,27.25
2023-05-19T03:50:04.638Z,26.80
2023-05-19T03:51:04.641Z,28.67
2023-05-19T03:52:04.729Z,25.54
2023-05-19T03:53:04.579Z,26.63
2023-05-19T03:54:04.581Z,28.66
2023-05-19T03:55:04.546Z,25.68
2023-05-19T03:56:04.567Z,26.41
2023-05-19T03:57:04.513Z,28.82
2023-05-19T03:58:04.491Z,27.59
2023-05-19T03:59:04.471Z,27.51
2023-05-19T04:00:04.451Z,25.00
2023-05-19T04:01:04.481Z,29.13
2023-05-19T04:02:04.459Z,26.42
2023-05-19T04:03:04.541Z,28.13
2023-05-19T04:04:04.450Z,27.80
2023-05-19T04:05:04.353Z,26.07
2023-05-19T04:06:04.389Z,26.54
2023-05-19T04:07:04.345Z,28.34
2023-05-19T04:08:04.427Z,27.70
2023-05-19T04:09:04.393Z,28.54
2023-05-19T04:10:04.450Z,26.54
2023-05-19T04:11:04.440Z,26.89
2023-05-19T04:12:04.502Z,27.67
2023-05-19T04:13:04.480Z,26.34
2023-05-19T04:14:04.500Z,29.23
2023-05-19T04:15:04.577Z,26.04
2023-05-19T04:16:04.615Z,25.66
2023-05-19T04:17:04.575Z,29.08
2023-05-19T04:18:04.627Z,27.75
2023-05-19T04:19:04.742Z,29.19
2023-05-19T04:20:04.639Z,31.50
2023-05-19T04:21:04.662Z,27.88
2023-05-19T04:22:04.673Z,30.62
2023-05-19T04:23:04.693Z,27.28
2023-05-19T04:24:04.700Z,28.59
2023-05-19T04:25:04.718Z,31.42
2023-05-19T04:26:04.701Z,28.41
2023-05-19T04:27:04.701Z,29.21
2023-05-19T04:28:04.718Z,28.35
2023-05-19T04:29:04.682Z,27.10
2023-05-19T04:30:04.650Z,30.32
2023-05-19T04:31:04.720Z,26.80
2023-05-19T04:32:04.645Z,27.39
2023-05-19T04:33:04.833Z,26.97
2023-05-19T04:34:04.617Z,28.90
2023-05-19T04:35:04.580Z,28.57
2023-05-19T04:36:04.599Z,28.07
2023-05-19T04:37:04.613Z,29.51
2023-05-19T04:38:04.639Z,28.09
2023-05-19T04:39:04.632Z,27.56
2023-05-19T04:40:04.653Z,27.25
2023-05-19T04:41:04.668Z,27.27
2023-05-19T04:42:04.695Z,27.23
2023-05-19T04:43:04.721Z,25.54
2023-05-19T04:44:04.725Z,28.68
2023-05-19T04:45:04.710Z,27.94
2023-05-19T04:46:04.720Z,26.51
2023-05-19T04:47:04.928Z,26.90
2023-05-19T04:48:04.881Z,26.60
2023-05-19T04:49:04.775Z,29.01
2023-05-19T04:50:04.807Z,25.69
2023-05-19T04:51:04.768Z,28.05
2023-05-19T04:52:04.790Z,28.82
2023-05-19T04:53:04.840Z,27.92
2023-05-19T04:54:04.849Z,27.79
2023-05-19T04:55:04.856Z,25.24
2023-05-19T04:56:04.876Z,25.57
2023-05-19T04:57:04.856Z,28.42
2023-05-19T04:58:04.871Z,29.19
2023-05-19T04:59:04.903Z,27.36
2023-05-19T05:00:04.915Z,28.46
2023-05-19T05:01:04.910Z,28.75
2023-05-19T05:02:05.037Z,30.57
2023-05-19T05:03:05.084Z,28.03
2023-05-19T05:04:04.998Z,28.47
2023-05-19T05:05:04.951Z,29.21
2023-05-19T05:06:04.988Z,28.38
2023-05-19T05:07:04.982Z,27.36
2023-05-19T05:08:04.997Z,29.24
2023-05-19T05:09:05.006Z,29.80
2023-05-19T05:10:05.015Z,27.73
2023-05-19T05:11:05.029Z,26.40
2023-05-19T05:12:05.048Z,26.29
2023-05-19T05:13:05.061Z,25.00
2023-05-19T05:14:05.080Z,25.08
2023-05-19T05:15:05.124Z,25.84
2023-05-19T05:16:05.253Z,25.03
2023-05-19T05:17:05.125Z,27.87
2023-05-19T05:18:05.191Z,25.00
2023-05-19T05:19:05.241Z,29.14
2023-05-19T05:20:05.177Z,25.00
2023-05-19T05:21:05.256Z,26.68
2023-05-19T05:22:05.212Z,26.01
2023-05-19T05:23:05.227Z,25.60
2023-05-19T05:24:05.261Z,25.63
2023-05-19T05:25:05.277Z,27.35
2023-05-19T05:26:05.291Z,27.77
2023-05-19T05:27:05.317Z,28.11
2023-05-19T05:28:05.490Z,32.08
2023-05-19T05:29:05.362Z,30.72
2023-05-19T05:30:05.378Z,27.96
2023-05-19T05:31:05.409Z,28.30
2023-05-19T05:32:05.482Z,30.43
2023-05-19T05:33:05.546Z,26.82
2023-05-19T05:34:05.452Z,26.25
2023-05-19T05:35:05.463Z,28.82
2023-05-19T05:36:05.482Z,28.48
2023-05-19T05:37:05.510Z,28.27
2023-05-19T05:38:05.517Z,25.89
2023-05-19T05:39:05.533Z,26.31
2023-05-19T05:40:05.551Z,27.41
2023-05-19T05:41:05.570Z,28.42
2023-05-19T05:42:05.594Z,28.51
2023-05-19T05:43:05.607Z,25.00
2023-05-19T05:44:05.634Z,29.40
2023-05-19T05:45:05.650Z,28.82
2023-05-19T05:46:05.699Z,30.65
2023-05-19T05:47:05.697Z,28.79
2023-05-19T05:48:05.922Z,29.31
2023-05-19T05:49:05.752Z,29.61
2023-05-19T05:50:05.770Z,27.60
2023-05-19T05:51:05.795Z,28.31
2023-05-19T05:52:06.795Z,25.66
2023-05-19T05:53:05.840Z,25.49
2023-05-19T05:54:05.866Z,30.74
2023-05-19T05:55:05.899Z,32.02
2023-05-19T05:56:05.914Z,28.86
2023-05-19T05:57:05.953Z,28.25
2023-05-19T05:58:05.977Z,27.64
2023-05-19T05:59:06.006Z,28.94
2023-05-19T06:00:06.061Z,27.12
2023-05-19T06:01:06.064Z,26.38
2023-05-19T06:02:06.110Z,30.01
2023-05-19T06:03:06.351Z,28.56
2023-05-19T06:04:06.191Z,25.76
2023-05-19T06:05:06.199Z,27.41
2023-05-19T06:06:06.191Z,28.70
2023-05-19T06:07:06.229Z,27.14
2023-05-19T06:08:06.254Z,27.06
2023-05-19T06:09:06.271Z,27.99
2023-05-19T06:10:06.297Z,28.41
2023-05-19T06:11:06.323Z,25.00
2023-05-19T06:12:06.352Z,27.01
2023-05-19T06:13:06.399Z,27.43
2023-05-19T06:14:06.384Z,31.52
2023-05-19T06:15:06.415Z,32.46
2023-05-19T06:16:06.546Z,31.99
2023-05-19T06:17:06.458Z,28.59
2023-05-19T06:18:06.518Z,26.48
2023-05-19T06:19:06.534Z,29.37
2023-05-19T06:20:06.648Z,26.74
2023-05-19T06:21:06.553Z,30.93
2023-05-19T06:22:06.583Z,25.00
2023-05-19T06:23:06.605Z,27.16
2023-05-19T06:24:06.618Z,25.25
2023-05-19T06:25:06.684Z,30.36
2023-05-19T06:26:06.657Z,30.08
2023-05-19T06:27:06.676Z,26.90
2023-05-19T06:28:06.718Z,28.69
2023-05-19T06:29:06.720Z,27.30
2023-05-19T06:30:06.754Z,29.77
2023-05-19T06:31:06.789Z,28.66
2023-05-19T06:32:06.791Z,32.89
2023-05-19T06:33:06.885Z,30.98
2023-05-19T06:34:06.836Z,25.44
2023-05-19T06:35:06.854Z,27.14
2023-05-19T06:36:06.907Z,28.12
2023-05-19T06:37:06.897Z,25.37
2023-05-19T06:38:06.905Z,28.40
2023-05-19T06:39:06.929Z,31.65
2023-05-19T06:40:06.970Z,31.61
2023-05-19T06:41:06.970Z,25.00
2023-05-19T06:42:06.988Z,25.32
2023-05-19T06:43:07.009Z,25.00
2023-05-19T06:44:07.034Z,31.09
2023-05-19T06:45:07.055Z,29.24
2023-05-19T06:46:07.064Z,26.08
2023-05-19T06:47:07.221Z,25.06
2023-05-19T06:48:07.151Z,32.44
2023-05-19T06:49:07.143Z,26.80
2023-05-19T06:50:07.147Z,28.05
2023-05-19T06:51:07.223Z,27.15
2023-05-19T06:52:07.212Z,29.49
2023-05-19T06:53:07.209Z,25.00
2023-05-19T06:54:07.230Z,25.94
2023-05-19T06:55:07.250Z,27.18
2023-05-19T06:56:07.267Z,27.42
2023-05-19T06:57:07.377Z,25.14
2023-05-19T06:58:07.896Z,27.13
2023-05-19T06:59:07.342Z,28.60
2023-05-19T07:00:07.378Z,27.75
2023-05-19T07:01:07.384Z,28.42
2023-05-19T07:02:07.547Z,32.52
2023-05-19T07:03:07.614Z,37.79
2023-05-19T07:04:07.693Z,30.06
2023-05-19T07:05:07.490Z,26.91
2023-05-19T07:06:08.313Z,31.67
2023-05-19T07:07:07.552Z,33.72
2023-05-19T07:08:07.606Z,27.41
2023-05-19T07:09:07.594Z,25.00
2023-05-19T07:10:07.638Z,25.29
2023-05-19T07:11:07.665Z,32.82
2023-05-19T07:12:07.707Z,34.12
2023-05-19T07:13:07.685Z,32.42
2023-05-19T07:14:07.730Z,31.36
2023-05-19T07:15:07.731Z,28.42
2023-05-19T07:16:07.874Z,33.18
2023-05-19T07:17:07.793Z,27.88
2023-05-19T07:18:07.885Z,25.00
2023-05-19T07:19:07.882Z,28.11
2023-05-19T07:20:07.860Z,27.37
2023-05-19T07:21:07.885Z,30.18
2023-05-19T07:22:07.940Z,28.34
2023-05-19T07:23:07.959Z,25.08
2023-05-19T07:24:08.016Z,32.87
2023-05-19T07:25:08.018Z,25.34
2023-05-19T07:26:08.050Z,29.09
2023-05-19T07:27:08.085Z,31.76
2023-05-19T07:28:08.125Z,29.69
2023-05-19T07:29:08.174Z,29.30
2023-05-19T07:30:08.195Z,26.34
2023-05-19T07:31:08.228Z,29.48
2023-05-19T07:32:08.285Z,29.06
2023-05-19T07:33:08.425Z,28.90
2023-05-19T07:34:08.322Z,28.66
2023-05-19T07:35:08.344Z,28.49
2023-05-19T07:36:08.385Z,29.71
2023-05-19T07:37:08.407Z,37.60
2023-05-19T07:38:08.439Z,34.72
2023-05-19T07:39:08.576Z,30.58
2023-05-19T07:40:08.526Z,33.37
2023-05-19T07:41:08.607Z,30.96
2023-05-19T07:42:08.592Z,30.41
2023-05-19T07:43:08.664Z,32.64
2023-05-19T07:44:08.654Z,33.22
2023-05-19T07:45:08.685Z,28.28
2023-05-19T07:46:08.817Z,25.88
2023-05-19T07:47:08.770Z,28.52
2023-05-19T07:48:08.824Z,27.50
2023-05-19T07:49:08.818Z,26.23
2023-05-19T07:50:08.853Z,31.27
2023-05-19T07:51:08.890Z,30.21
2023-05-19T07:52:08.924Z,32.82
2023-05-19T07:53:08.980Z,32.21
2023-05-19T07:54:08.992Z,32.21
2023-05-19T07:55:09.047Z,26.70
2023-05-19T07:56:09.099Z,30.99
2023-05-19T07:57:09.107Z,27.92
2023-05-19T07:58:09.137Z,26.15
2023-05-19T07:59:09.182Z,32.77
2023-05-19T08:00:09.219Z,29.97
2023-05-19T08:01:09.248Z,28.08
2023-05-19T08:02:09.309Z,33.32
2023-05-19T08:03:09.480Z,28.88
2023-05-19T08:04:11.881Z,28.06
2023-05-19T08:05:09.351Z,27.64
2023-05-19T08:06:09.322Z,27.72
2023-05-19T08:07:09.322Z,28.19
2023-05-19T08:08:09.352Z,28.08
2023-05-19T08:09:09.288Z,19.70
2023-05-19T08:10:09.274Z,26.10
2023-05-19T08:11:09.255Z,26.16
2023-05-19T08:12:09.274Z,29.91
2023-05-19T08:13:09.282Z,26.53
2023-05-19T08:14:09.217Z,29.18
2023-05-19T08:15:09.204Z,29.57
2023-05-19T08:16:09.223Z,26.13
2023-05-19T08:17:09.168Z,29.29
2023-05-19T08:18:09.195Z,29.34
2023-05-19T08:19:09.180Z,29.61
2023-05-19T08:20:09.123Z,26.26
2023-05-19T08:21:09.130Z,31.27
2023-05-19T08:22:09.092Z,30.55
2023-05-19T08:23:09.077Z,31.59
2023-05-19T08:24:09.067Z,28.70
2023-05-19T08:25:09.043Z,26.74
2023-05-19T08:26:09.030Z,27.20
2023-05-19T08:27:09.017Z,26.18
2023-05-19T08:28:09.052Z,26.83
2023-05-19T08:29:09.044Z,27.76
2023-05-19T08:30:09.082Z,25.37
2023-05-19T08:31:09.206Z,26.91
2023-05-19T08:32:10.359Z,32.92
2023-05-19T08:33:09.192Z,32.96
2023-05-19T08:34:09.116Z,33.04
2023-05-19T08:35:09.096Z,26.29
2023-05-19T08:36:09.085Z,32.65
2023-05-19T08:37:09.073Z,38.09
2023-05-19T08:38:09.065Z,32.30
2023-05-19T08:39:09.065Z,30.24
2023-05-19T08:40:09.037Z,25.00
2023-05-19T08:41:09.018Z,25.62
2023-05-19T08:42:09.010Z,25.73
2023-05-19T08:43:09.002Z,25.86
2023-05-19T08:44:09.031Z,27.31
2023-05-19T08:45:08.976Z,25.80
2023-05-19T08:46:08.999Z,28.81
2023-05-19T08:47:08.975Z,26.71
2023-05-19T08:48:08.998Z,25.26
2023-05-19T08:49:08.924Z,35.17
2023-05-19T08:50:08.950Z,32.95
2023-05-19T08:51:08.905Z,33.05
2023-05-19T08:52:08.896Z,34.42
2023-05-19T08:53:15.275Z,32.51
2023-05-19T08:54:08.858Z,32.84
2023-05-19T08:55:08.849Z,33.07
2023-05-19T08:56:08.833Z,34.12
2023-05-19T08:57:08.824Z,32.90
2023-05-19T08:58:08.811Z,22.77
2023-05-19T08:59:08.787Z,25.00
2023-05-19T09:00:08.861Z,34.86
2023-05-19T09:01:08.797Z,33.52
2023-05-19T09:02:08.753Z,34.29
2023-05-19T09:04:07.841Z,32.87
2023-05-19T09:05:08.834Z,32.54
2023-05-19T09:06:08.940Z,33.86
2023-05-19T09:07:08.670Z,29.68
2023-05-19T09:08:08.652Z,40.22
2023-05-19T09:09:08.669Z,35.76
2023-05-19T09:10:08.620Z,32.87
2023-05-19T09:11:08.588Z,36.30
2023-05-19T09:12:08.570Z,30.31
2023-05-19T09:13:08.553Z,34.86
2023-05-19T09:14:08.542Z,40.37
2023-05-19T09:15:08.516Z,41.28
2023-05-19T09:16:08.657Z,39.28
2023-05-19T09:17:08.612Z,44.34
2023-05-19T09:18:08.525Z,46.17
2023-05-19T09:19:08.448Z,33.16
2023-05-19T09:20:08.416Z,37.21
2023-05-19T09:21:08.396Z,38.90
2023-05-19T09:22:08.374Z,31.55
2023-05-19T09:23:08.365Z,35.26
2023-05-19T09:24:08.340Z,37.87
2023-05-19T09:25:08.319Z,38.21
2023-05-19T09:26:08.362Z,44.81
2023-05-19T09:27:08.287Z,43.17
2023-05-19T09:28:08.269Z,43.10
2023-05-19T09:29:08.264Z,45.39
2023-05-19T09:30:08.280Z,42.06
2023-05-19T09:31:08.441Z,38.28
2023-05-19T09:32:08.438Z,37.64
2023-05-19T09:33:08.435Z,34.72
2023-05-19T09:34:08.442Z,39.33
2023-05-19T09:35:08.508Z,30.79
2023-05-19T09:36:08.704Z,35.91
2023-05-19T09:37:08.544Z,30.65
2023-05-19T09:38:08.580Z,39.47
2023-05-19T09:39:08.614Z,36.86
2023-05-19T09:40:08.908Z,33.36
2023-05-19T09:41:08.690Z,32.10
2023-05-19T09:42:08.724Z,32.20
2023-05-19T09:43:08.776Z,32.75
2023-05-19T09:44:08.817Z,30.10
2023-05-19T09:45:08.850Z,36.68
2023-05-19T09:46:09.606Z,27.76
2023-05-19T09:47:08.884Z,25.00
2023-05-19T09:48:08.945Z,28.54
2023-05-19T09:49:08.850Z,31.11
2023-05-19T09:50:08.827Z,25.00
2023-05-19T09:51:08.802Z,31.61
2023-05-19T09:52:09.439Z,37.75
2023-05-19T09:53:08.984Z,45.69
2023-05-19T09:54:09.016Z,39.49
2023-05-19T09:55:09.044Z,35.92
2023-05-19T09:56:09.074Z,36.43
2023-05-19T09:57:09.109Z,37.27
2023-05-19T09:58:10.385Z,38.68
2023-05-19T09:59:09.124Z,45.81
2023-05-19T10:00:09.093Z,41.94
2023-05-19T10:01:09.093Z,33.91
2023-05-19T10:02:09.065Z,38.68
2023-05-19T10:03:09.082Z,42.13
2023-05-19T10:04:09.085Z,49.77
2023-05-19T10:05:09.039Z,50.02
2023-05-19T10:06:09.009Z,50.49
2023-05-19T10:07:08.947Z,65.60
2023-05-19T10:08:08.922Z,63.53
2023-05-19T10:09:08.912Z,69.34
2023-05-19T10:10:08.911Z,72.79
2023-05-19T10:11:08.856Z,71.50
2023-05-19T10:12:08.843Z,68.99
2023-05-19T10:13:08.817Z,56.64
2023-05-19T10:14:08.793Z,55.68
2023-05-19T10:15:08.771Z,50.21
2023-05-19T10:16:08.789Z,59.70
2023-05-19T10:17:08.728Z,64.63
2023-05-19T10:18:08.768Z,45.03
2023-05-19T10:19:08.737Z,42.25
2023-05-19T10:20:08.703Z,43.35
2023-05-19T10:21:08.664Z,43.09
2023-05-19T10:22:08.633Z,49.70
2023-05-19T10:23:08.614Z,53.85
2023-05-19T10:24:09.018Z,51.87
2023-05-19T10:25:08.569Z,58.25
2023-05-19T10:26:08.552Z,53.86
2023-05-19T10:27:08.556Z,59.15
2023-05-19T10:28:08.504Z,54.57
2023-05-19T10:29:08.498Z,47.80
2023-05-19T10:30:10.808Z,50.07
2023-05-19T10:31:08.502Z,50.14
2023-05-19T10:32:08.565Z,50.17
2023-05-19T10:33:08.503Z,51.10
2023-05-19T10:34:08.444Z,55.25
2023-05-19T10:35:08.414Z,47.96
2023-05-19T10:36:08.464Z,46.11
2023-05-19T10:37:08.385Z,50.01
2023-05-19T10:38:08.366Z,51.02
2023-05-19T10:39:08.368Z,52.68
2023-05-19T10:40:08.328Z,34.42
2023-05-19T10:41:08.292Z,40.07
2023-05-19T10:42:08.298Z,39.90
2023-05-19T10:43:08.261Z,44.99
2023-05-19T10:44:08.243Z,41.87
2023-05-19T10:45:08.288Z,49.59
2023-05-19T10:46:08.203Z,41.28
2023-05-19T10:47:08.269Z,37.79
2023-05-19T10:48:08.216Z,34.74
2023-05-19T10:49:08.169Z,32.49
2023-05-19T10:50:08.156Z,31.74
2023-05-19T10:51:08.118Z,40.88
2023-05-19T10:52:08.207Z,49.89
2023-05-19T10:53:08.080Z,47.38
2023-05-19T10:54:08.050Z,54.46
2023-05-19T10:55:08.029Z,59.70
2023-05-19T10:56:08.011Z,66.00
2023-05-19T10:57:08.013Z,51.35
2023-05-19T10:58:07.967Z,48.39
2023-05-19T10:59:07.927Z,44.42
2023-05-19T11:00:07.909Z,48.62
2023-05-19T11:01:07.931Z,48.00
2023-05-19T11:02:08.148Z,39.47
2023-05-19T11:03:08.194Z,35.11
2023-05-19T11:04:08.210Z,35.88
2023-05-19T11:05:08.023Z,43.30
2023-05-19T11:06:08.026Z,45.10
2023-05-19T11:07:08.067Z,35.66
2023-05-19T11:08:08.263Z,29.20
2023-05-19T11:09:08.135Z,44.71
2023-05-19T11:10:08.118Z,53.66
2023-05-19T11:11:08.144Z,39.30
2023-05-19T11:12:08.194Z,31.96
2023-05-19T11:13:08.190Z,37.40
2023-05-19T11:14:08.210Z,44.48
2023-05-19T11:15:08.232Z,42.17
2023-05-19T11:16:08.326Z,48.68
2023-05-19T11:17:08.340Z,53.13
2023-05-19T11:18:08.360Z,46.59
2023-05-19T11:19:08.339Z,49.84
2023-05-19T11:20:08.340Z,46.77
2023-05-19T11:21:08.393Z,42.47
2023-05-19T11:22:08.390Z,47.69
2023-05-19T11:23:08.556Z,43.72
2023-05-19T11:24:08.464Z,41.58
2023-05-19T11:25:08.443Z,36.97
2023-05-19T11:26:08.471Z,38.23
2023-05-19T11:27:08.501Z,30.05
2023-05-19T11:28:08.518Z,29.02
2023-05-19T11:29:08.537Z,37.42
2023-05-19T11:30:08.559Z,37.16
2023-05-19T11:31:08.577Z,32.23
2023-05-19T11:32:08.610Z,33.65
2023-05-19T11:33:08.668Z,40.46
2023-05-19T11:34:08.646Z,40.52
2023-05-19T11:35:08.667Z,35.31
2023-05-19T11:36:08.685Z,33.80
2023-05-19T11:37:08.709Z,36.79
2023-05-19T11:38:08.756Z,34.26
2023-05-19T11:39:08.746Z,26.61
2023-05-19T11:40:08.829Z,25.94
2023-05-19T11:41:08.779Z,25.71
2023-05-19T11:42:08.828Z,26.90
2023-05-19T11:43:08.832Z,30.86
2023-05-19T11:44:08.843Z,36.16
2023-05-19T11:45:08.865Z,41.70
2023-05-19T11:46:08.953Z,40.30
2023-05-19T11:47:09.034Z,35.36
2023-05-19T11:48:09.034Z,38.13
2023-05-19T11:49:08.978Z,33.87
2023-05-19T11:50:08.990Z,39.83
2023-05-19T11:51:09.023Z,44.38
2023-05-19T11:52:09.044Z,44.21
2023-05-19T11:53:09.068Z,50.82
2023-05-19T11:54:09.103Z,47.00
2023-05-19T11:55:09.126Z,37.39
2023-05-19T11:56:09.179Z,43.08
2023-05-19T11:57:09.176Z,43.83
2023-05-19T11:58:09.192Z,33.49
2023-05-19T11:59:09.234Z,36.56
2023-05-19T12:00:09.257Z,40.14
2023-05-19T12:01:09.260Z,45.52
2023-05-19T12:02:09.354Z,48.55
2023-05-19T12:03:09.697Z,49.70
2023-05-19T12:04:09.336Z,41.41
2023-05-19T12:05:09.375Z,32.85
2023-05-19T12:06:09.438Z,32.58
2023-05-19T12:07:09.399Z,28.75
2023-05-19T12:08:09.424Z,36.58
2023-05-19T12:09:09.442Z,28.97
2023-05-19T12:10:09.487Z,41.85
2023-05-19T12:11:09.487Z,31.68
2023-05-19T12:12:09.543Z,32.21
2023-05-19T12:13:09.954Z,25.00
2023-05-19T12:14:09.571Z,30.84
2023-05-19T12:15:09.597Z,27.54
2023-05-19T12:16:09.675Z,33.70
2023-05-19T12:17:09.639Z,25.00
2023-05-19T12:18:09.749Z,32.49
2023-05-19T12:19:09.753Z,41.98
2023-05-19T12:20:09.707Z,42.17
2023-05-19T12:21:09.918Z,38.95
2023-05-19T12:22:09.758Z,39.83
2023-05-19T12:23:09.788Z,33.97
2023-05-19T12:24:09.828Z,32.21
2023-05-19T12:25:09.856Z,34.02
2023-05-19T12:26:09.877Z,40.50
2023-05-19T12:27:09.906Z,38.30
2023-05-19T12:28:09.965Z,33.04
2023-05-19T12:29:09.963Z,35.43
2023-05-19T12:30:10.118Z,38.69
2023-05-19T12:31:10.046Z,35.99
2023-05-19T12:32:10.173Z,41.75
2023-05-19T12:33:10.141Z,33.06
2023-05-19T12:34:10.130Z,41.86
2023-05-19T12:35:10.155Z,34.99
2023-05-19T12:36:10.197Z,35.45
2023-05-19T12:37:10.235Z,39.46
2023-05-19T12:38:10.252Z,31.23
2023-05-19T12:39:10.272Z,38.23
2023-05-19T12:40:10.300Z,36.07
2023-05-19T12:41:10.333Z,31.77
2023-05-19T12:42:10.367Z,39.45
2023-05-19T12:43:10.391Z,39.05
2023-05-19T12:44:10.447Z,36.50
2023-05-19T12:45:10.441Z,35.63
2023-05-19T12:46:10.530Z,31.84
2023-05-19T12:47:10.510Z,31.75
2023-05-19T12:48:10.582Z,33.92
2023-05-19T12:49:10.563Z,37.52
2023-05-19T12:50:10.740Z,41.89
2023-05-19T12:51:10.614Z,51.39
2023-05-19T12:52:13.041Z,51.03
2023-05-19T12:53:10.581Z,56.51
2023-05-19T12:54:10.602Z,51.51
2023-05-19T12:55:10.664Z,52.21